Time;durP1;ratioP1;P1;durP2;ratioP2;P2;SDS_P1;SDS_P2;PMS_P1;PMS_P2;Temp;Humidity;BMP_temperature;BMP_pressure;BME280_temperature;BME280_humidity;BME280_pressure;Samples;Min_cycle;Max_cycle;Signal;HPM_P1;HPM_P2
2022/02/05 00:01:22;;;;;;;1.20;0.60;;;4.50;99.90;;;;;;5014054;28;20434;-74
2022/02/05 00:03:55;;;;;;;0.70;0.50;;;4.50;99.90;;;;;;5014031;28;20936;-74
2022/02/05 00:06:26;;;;;;;0.70;0.50;;;4.50;99.90;;;;;;5014473;28;20510;-73
2022/02/05 00:09:06;;;;;;;0.70;0.40;;;4.50;99.90;;;;;;5012752;28;20447;-73
2022/02/05 00:12:07;;;;;;;0.70;0.50;;;4.50;99.90;;;;;;5013646;28;20454;-73
2022/02/05 00:39:20;;;;;;;0.70;0.50;;;4.30;99.90;;;;;;5016103;28;20442;-73
2022/02/05 00:41:52;;;;;;;0.67;0.50;;;4.30;99.90;;;;;;5021852;28;20429;-74
2022/02/05 00:44:18;;;;;;;0.70;0.50;;;4.30;99.90;;;;;;4995555;28;20434;-71
2022/02/05 00:46:44;;;;;;;0.70;0.50;;;4.20;99.90;;;;;;5011455;28;20427;-73
2022/02/05 00:49:10;;;;;;;0.70;0.40;;;4.20;99.90;;;;;;4995857;28;20541;-72
2022/02/05 00:51:44;;;;;;;0.70;0.50;;;4.20;99.90;;;;;;5013015;28;20464;-73
2022/02/05 00:54:14;;;;;;;0.70;0.40;;;4.20;99.90;;;;;;5013558;28;20178;-72
2022/02/05 00:59:17;;;;;;;0.60;0.40;;;4.20;99.90;;;;;;5013353;28;20447;-73
2022/02/05 01:01:43;;;;;;;0.70;0.50;;;4.20;99.90;;;;;;5012722;28;20411;-73
2022/02/05 01:04:09;;;;;;;0.60;0.50;;;4.20;99.90;;;;;;5012187;28;20440;-74
2022/02/05 01:06:35;;;;;;;0.70;0.50;;;4.20;99.90;;;;;;5012253;28;20518;-73
2022/02/05 01:09:05;;;;;;;0.70;0.50;;;4.20;99.90;;;;;;5011660;28;20199;-73
2022/02/05 01:11:32;;;;;;;0.60;0.47;;;4.20;99.90;;;;;;5012768;28;20447;-74
2022/02/05 01:13:59;;;;;;;0.67;0.40;;;4.20;99.90;;;;;;4993825;28;20415;-74
2022/02/05 01:16:35;;;;;;;0.70;0.50;;;4.20;99.90;;;;;;5012571;28;20423;-73
2022/02/05 01:19:00;;;;;;;0.70;0.43;;;4.20;99.90;;;;;;5012774;28;20434;-74
2022/02/05 01:24:00;;;;;;;0.80;0.73;;;4.10;99.90;;;;;;5012656;28;20180;-74
2022/02/05 01:26:32;;;;;;;0.60;0.40;;;4.20;99.90;;;;;;5012605;28;20430;-75
2022/02/05 01:29:06;;;;;;;0.80;0.70;;;4.10;99.90;;;;;;5012723;28;20582;-74
2022/02/05 01:31:39;;;;;;;0.70;0.40;;;4.10;99.90;;;;;;5012253;28;20489;-74
2022/02/05 01:48:55;;;;;;;0.70;0.50;;;4.10;99.90;;;;;;5012825;28;20974;-73
2022/02/05 02:12:05;;;;;;;0.70;0.50;;;4.00;99.90;;;;;;5008280;28;20465;-73
2022/02/05 02:30:05;;;;;;;0.70;0.50;;;4.00;99.90;;;;;;5011833;28;20200;-73
2022/02/05 02:32:33;;;;;;;0.70;0.40;;;4.00;99.90;;;;;;5010075;28;20461;-71
2022/02/05 02:35:05;;;;;;;0.70;0.40;;;4.00;99.90;;;;;;5011786;28;20462;-71
2022/02/05 02:37:44;;;;;;;0.70;0.40;;;4.00;99.90;;;;;;4994126;28;20414;-73
2022/02/05 02:42:48;;;;;;;0.70;0.50;;;3.90;99.90;;;;;;5007623;28;20454;-73
2022/02/05 02:45:13;;;;;;;1.47;1.20;;;3.90;99.90;;;;;;5011507;28;20433;-73
2022/02/05 02:47:42;;;;;;;0.70;0.50;;;3.80;99.90;;;;;;4994038;28;21010;-72
2022/02/05 02:50:16;;;;;;;0.60;0.40;;;3.90;99.90;;;;;;5011340;28;20206;-75
2022/02/05 02:56:30;;;;;;;0.73;0.73;;;3.80;99.90;;;;;;5011728;28;20433;-72
2022/02/05 02:58:26;;;;;;;0.70;0.50;;;3.80;99.90;;;;;;5010996;28;20507;-73
2022/02/05 03:00:56;;;;;;;0.70;0.50;;;3.80;99.90;;;;;;5003339;28;20761;-72
2022/02/05 03:03:23;;;;;;;0.70;0.50;;;3.80;99.90;;;;;;4994096;28;20450;-73
2022/02/05 03:05:48;;;;;;;1.43;1.27;;;3.80;99.90;;;;;;5011520;28;21165;-73
2022/02/05 03:08:14;;;;;;;0.70;0.70;;;3.80;99.90;;;;;;5011685;28;20246;-72
2022/02/05 03:10:40;;;;;;;0.60;0.40;;;3.80;99.90;;;;;;5010184;28;20687;-72
2022/02/05 03:13:05;;;;;;;0.70;0.60;;;3.70;99.90;;;;;;5011296;28;20203;-73
2022/02/05 03:15:39;;;;;;;0.70;0.40;;;3.80;99.90;;;;;;5011182;28;20187;-73
2022/02/05 03:18:10;;;;;;;0.70;0.50;;;3.80;99.90;;;;;;5011124;28;20510;-73
2022/02/05 03:20:36;;;;;;;0.63;0.50;;;3.80;99.90;;;;;;5013205;28;20482;-72
2022/02/05 03:23:02;;;;;;;0.70;0.50;;;3.70;99.90;;;;;;5013703;28;20485;-73
2022/02/05 03:25:29;;;;;;;0.60;0.43;;;3.80;99.90;;;;;;5015137;28;20494;-72
2022/02/05 03:27:55;;;;;;;0.70;0.50;;;3.80;99.90;;;;;;5014902;28;20462;-73
2022/02/05 03:30:21;;;;;;;0.60;0.50;;;3.80;99.90;;;;;;4997330;28;20874;-73
2022/02/05 03:32:47;;;;;;;0.63;0.40;;;3.80;99.90;;;;;;5014338;28;20464;-73
2022/02/05 03:35:12;;;;;;;0.70;0.50;;;3.80;99.90;;;;;;5014540;28;20168;-72
2022/02/05 03:37:38;;;;;;;0.70;0.50;;;3.80;99.90;;;;;;5013976;28;20222;-73
2022/02/05 03:40:04;;;;;;;0.70;0.40;;;3.80;99.90;;;;;;5014834;28;20203;-73
2022/02/05 03:42:29;;;;;;;0.70;0.50;;;3.80;99.90;;;;;;4996455;28;20210;-73
2022/02/05 03:44:55;;;;;;;0.70;0.50;;;3.80;99.90;;;;;;5014571;28;20450;-73
2022/02/05 03:47:21;;;;;;;0.70;0.40;;;3.80;99.90;;;;;;5013202;28;20172;-73
2022/02/05 03:49:48;;;;;;;0.60;0.40;;;3.80;99.90;;;;;;5014639;28;20192;-71
2022/02/05 03:52:14;;;;;;;0.60;0.50;;;3.80;99.90;;;;;;5013979;28;20349;-73
2022/02/05 03:54:39;;;;;;;0.70;0.50;;;3.80;99.90;;;;;;5014589;28;20517;-72
2022/02/05 03:57:05;;;;;;;0.60;0.40;;;3.80;99.90;;;;;;5014567;28;20172;-73
2022/02/05 03:59:30;;;;;;;0.80;0.80;;;3.80;99.90;;;;;;5014183;28;20196;-71
2022/02/05 04:01:56;;;;;;;0.60;0.40;;;3.80;99.90;;;;;;4996497;28;20180;-73
2022/02/05 04:04:22;;;;;;;0.60;0.40;;;3.80;99.90;;;;;;5014150;28;20198;-73
2022/02/05 04:06:48;;;;;;;0.60;0.40;;;3.80;99.90;;;;;;5014181;28;20174;-73
2022/02/05 04:09:22;;;;;;;0.70;0.50;;;3.80;99.90;;;;;;5013910;28;20439;-73
2022/02/05 04:17:20;;;;;;;0.70;0.40;;;3.70;99.90;;;;;;5013215;28;20843;-73
2022/02/05 04:19:46;;;;;;;0.70;0.50;;;3.60;99.90;;;;;;5013842;28;20439;-73
2022/02/05 04:22:11;;;;;;;0.60;0.50;;;3.60;99.90;;;;;;5013073;28;20549;-72
2022/02/05 04:24:37;;;;;;;0.67;0.50;;;3.70;99.90;;;;;;5014036;28;20175;-73
2022/02/05 04:27:03;;;;;;;0.70;0.43;;;3.60;99.90;;;;;;5013855;28;20179;-73
2022/02/05 04:29:28;;;;;;;0.60;0.43;;;3.60;99.90;;;;;;5013672;28;20204;-73
2022/02/05 04:31:54;;;;;;;0.67;0.50;;;3.60;99.90;;;;;;5012225;28;20958;-73
2022/02/05 04:34:20;;;;;;;0.60;0.50;;;3.70;99.90;;;;;;5013219;28;20171;-72
2022/02/05 04:36:45;;;;;;;1.63;1.43;;;3.70;99.90;;;;;;5013682;28;20431;-73
2022/02/05 04:39:15;;;;;;;0.83;0.60;;;3.80;99.90;;;;;;5013788;28;20561;-73
2022/02/05 04:41:50;;;;;;;0.60;0.50;;;3.80;99.90;;;;;;4995152;28;20183;-73
2022/02/05 04:44:42;;;;;;;0.67;0.40;;;3.80;99.90;;;;;;5013429;28;20458;-73
2022/02/05 04:58:06;;;;;;;0.70;0.47;;;3.80;99.90;;;;;;4974434;28;20929;-73
2022/02/05 05:00:47;;;;;;;0.70;0.50;;;3.80;99.90;;;;;;5010937;28;20415;-73
2022/02/05 05:06:12;;;;;;;0.70;0.50;;;3.80;99.90;;;;;;5013045;28;20468;-73
2022/02/05 05:21:42;;;;;;;0.70;0.50;;;3.90;99.90;;;;;;5012388;28;20430;-72
2022/02/05 05:24:08;;;;;;;2.60;1.17;;;4.00;99.90;;;;;;5013074;28;20791;-72
2022/02/05 05:26:33;;;;;;;0.70;0.43;;;4.00;99.90;;;;;;5012642;28;20179;-72
2022/02/05 05:28:59;;;;;;;0.70;0.50;;;4.00;99.90;;;;;;4995177;28;20188;-72
2022/02/05 05:31:25;;;;;;;1.13;1.03;;;4.00;99.90;;;;;;5011757;28;20773;-73
2022/02/05 05:33:50;;;;;;;0.60;0.40;;;4.00;99.90;;;;;;5012613;28;20176;-73
2022/02/05 05:36:16;;;;;;;0.70;0.50;;;4.00;99.90;;;;;;5012575;28;20169;-73
2022/02/05 05:38:41;;;;;;;0.60;0.50;;;4.10;99.90;;;;;;5012651;28;20333;-73
2022/02/05 05:41:08;;;;;;;0.90;0.70;;;4.10;99.90;;;;;;5012071;28;20191;-74
2022/02/05 05:43:48;;;;;;;0.60;0.40;;;4.10;99.90;;;;;;5012003;28;20169;-71
2022/02/05 05:46:17;;;;;;;0.63;0.50;;;4.10;99.90;;;;;;5012337;28;20419;-72
2022/02/05 05:51:18;;;;;;;1.10;1.07;;;4.10;99.90;;;;;;5011901;28;20793;-73
2022/02/05 05:53:44;;;;;;;0.70;0.60;;;4.20;99.90;;;;;;5012132;28;20437;-72
2022/02/05 05:56:09;;;;;;;0.70;0.50;;;4.20;99.90;;;;;;4994812;28;20419;-73
2022/02/05 05:58:35;;;;;;;0.70;0.50;;;4.20;99.90;;;;;;5011760;28;20730;-73
2022/02/05 06:01:00;;;;;;;1.87;1.10;;;4.10;99.90;;;;;;5011730;28;20222;-73
2022/02/05 06:03:26;;;;;;;0.60;0.50;;;4.20;99.90;;;;;;5011933;28;20237;-73
2022/02/05 06:05:52;;;;;;;0.70;0.70;;;4.20;99.90;;;;;;5012129;28;20180;-74
2022/02/05 06:08:18;;;;;;;0.70;0.50;;;4.20;99.90;;;;;;5011876;28;20160;-74
2022/02/05 06:10:44;;;;;;;1.10;0.90;;;4.30;99.90;;;;;;5011902;28;20172;-74
2022/02/05 06:13:10;;;;;;;0.70;0.50;;;4.30;99.90;;;;;;5012415;28;20584;-74
2022/02/05 06:15:38;;;;;;;0.67;0.40;;;4.40;99.90;;;;;;5013661;28;20168;-74
2022/02/05 06:18:04;;;;;;;0.70;0.47;;;4.50;99.90;;;;;;4995024;28;20788;-74
2022/02/05 06:20:30;;;;;;;0.70;0.50;;;4.50;99.90;;;;;;5013148;28;20529;-74
2022/02/05 06:22:55;;;;;;;0.63;0.43;;;4.50;99.90;;;;;;4996201;28;20767;-74
2022/02/05 06:25:21;;;;;;;0.67;0.47;;;4.60;99.90;;;;;;5013600;28;20175;-74
2022/02/05 06:27:47;;;;;;;0.70;0.50;;;4.50;99.90;;;;;;5012872;28;20612;-74
2022/02/05 06:30:13;;;;;;;0.70;0.50;;;4.50;99.90;;;;;;5012103;28;20215;-75
2022/02/05 06:32:38;;;;;;;0.70;0.50;;;4.50;99.90;;;;;;5011751;28;20447;-74
2022/02/05 06:35:05;;;;;;;0.70;0.43;;;4.40;99.90;;;;;;5011676;28;20582;-74
2022/02/05 06:37:31;;;;;;;0.70;0.40;;;4.30;99.90;;;;;;5010786;28;20428;-75
2022/02/05 06:39:57;;;;;;;0.67;0.40;;;4.30;99.90;;;;;;5011885;28;20438;-73
2022/02/05 06:42:22;;;;;;;0.63;0.43;;;4.20;99.90;;;;;;5011638;28;20168;-73
2022/02/05 06:44:48;;;;;;;0.70;0.50;;;4.20;99.90;;;;;;5011419;28;20553;-73
2022/02/05 06:47:13;;;;;;;0.60;0.40;;;4.20;99.90;;;;;;5012736;28;20169;-74
2022/02/05 06:49:39;;;;;;;0.60;0.50;;;4.10;99.90;;;;;;5012914;28;20210;-74
2022/02/05 06:52:07;;;;;;;0.70;0.50;;;4.10;99.90;;;;;;5010612;28;20201;-74
2022/02/05 06:54:32;;;;;;;0.70;0.60;;;4.00;99.90;;;;;;4994653;28;20183;-74
2022/02/05 06:56:58;;;;;;;0.70;0.40;;;4.00;99.90;;;;;;5015391;28;20419;-74
2022/02/05 06:59:23;;;;;;;0.60;0.40;;;4.00;99.90;;;;;;5015606;28;20200;-73
2022/02/05 07:01:49;;;;;;;0.70;0.50;;;4.00;99.90;;;;;;5014569;28;20218;-73
2022/02/05 07:04:15;;;;;;;0.67;0.50;;;3.90;99.90;;;;;;5015236;28;20712;-74
2022/02/05 07:06:40;;;;;;;0.60;0.40;;;3.90;99.90;;;;;;5015969;28;20176;-73
2022/02/05 07:09:06;;;;;;;0.70;0.50;;;3.90;99.90;;;;;;5016297;28;20211;-74
2022/02/05 07:11:34;;;;;;;0.60;0.50;;;3.90;99.90;;;;;;5015261;28;20598;-73
2022/02/05 07:14:02;;;;;;;0.60;0.47;;;3.90;99.90;;;;;;5016350;28;20258;-74
2022/02/05 07:16:33;;;;;;;0.70;0.50;;;3.90;99.90;;;;;;5016119;28;20426;-73
2022/02/05 07:19:16;;;;;;;0.70;0.50;;;3.90;99.90;;;;;;5015911;28;20501;-73
2022/02/05 07:21:47;;;;;;;1.43;1.33;;;3.80;99.90;;;;;;4996979;28;20433;-73
2022/02/05 07:24:24;;;;;;;0.70;0.50;;;3.90;99.90;;;;;;5014882;28;20434;-72
2022/02/05 07:29:33;;;;;;;0.70;0.50;;;3.90;99.90;;;;;;5015180;28;20820;-73
2022/02/05 07:31:59;;;;;;;0.60;0.40;;;3.90;99.90;;;;;;4996876;28;20463;-72
2022/02/05 07:34:30;;;;;;;0.70;0.50;;;3.90;99.90;;;;;;4997377;28;20184;-72
2022/02/05 07:37:01;;;;;;;0.60;0.50;;;3.90;99.90;;;;;;5003554;28;20184;-73
2022/02/05 07:39:28;;;;;;;0.70;0.50;;;4.00;99.90;;;;;;4997058;28;20521;-72
2022/02/05 07:41:54;;;;;;;0.63;0.40;;;4.00;99.90;;;;;;5014354;28;20423;-73
2022/02/05 07:44:20;;;;;;;0.70;0.50;;;4.00;99.90;;;;;;5014560;28;20427;-74
2022/02/05 07:46:49;;;;;;;0.70;0.40;;;4.00;99.90;;;;;;5014740;28;20431;-73
2022/02/05 07:49:16;;;;;;;0.60;0.50;;;4.10;99.90;;;;;;5014574;28;20195;-73
2022/02/05 07:51:42;;;;;;;0.60;0.40;;;4.20;99.90;;;;;;5013811;28;20857;-74
2022/02/05 07:54:10;;;;;;;0.63;0.40;;;4.20;99.90;;;;;;5014273;28;20422;-74
2022/02/05 07:56:49;;;;;;;0.70;0.47;;;4.20;99.90;;;;;;5014613;28;20481;-74
2022/02/05 07:59:17;;;;;;;0.70;0.50;;;4.30;99.90;;;;;;5015877;28;20524;-74
2022/02/05 08:01:43;;;;;;;0.70;0.60;;;4.40;99.90;;;;;;4997433;28;20431;-74
2022/02/05 08:04:08;;;;;;;0.70;0.50;;;4.50;99.90;;;;;;5015129;28;20516;-74
2022/02/05 08:06:35;;;;;;;0.60;0.47;;;4.60;99.90;;;;;;5013009;28;20439;-74
2022/02/05 08:09:16;;;;;;;2.80;1.00;;;4.60;99.90;;;;;;5014123;28;20447;-73
2022/02/05 08:11:51;;;;;;;0.70;0.40;;;4.80;99.90;;;;;;5013716;28;20493;-74
2022/02/05 08:14:19;;;;;;;0.70;0.50;;;5.20;99.90;;;;;;5014477;28;20427;-73
2022/02/05 08:16:50;;;;;;;3.83;0.87;;;5.70;99.90;;;;;;5014194;28;20427;-74
2022/02/05 08:19:15;;;;;;;0.70;0.60;;;6.20;99.90;;;;;;4995800;28;20477;-74
2022/02/05 08:21:41;;;;;;;0.70;0.50;;;6.80;99.90;;;;;;5013032;28;20455;-72
2022/02/05 08:24:07;;;;;;;0.70;0.50;;;7.30;99.90;;;;;;5014041;28;20668;-73
2022/02/05 08:26:33;;;;;;;1.93;1.83;;;7.90;99.90;;;;;;5014063;28;20188;-73
2022/02/05 08:29:02;;;;;;;0.70;0.50;;;8.40;99.90;;;;;;5014287;28;20231;-73
2022/02/05 08:31:28;;;;;;;0.70;0.50;;;8.90;99.90;;;;;;5011854;28;20203;-73
2022/02/05 08:33:53;;;;;;;2.13;0.80;;;9.30;99.90;;;;;;5015340;28;20461;-73
2022/02/05 08:36:22;;;;;;;1.10;0.77;;;9.90;99.90;;;;;;5014465;28;20676;-73
2022/02/05 08:38:49;;;;;;;1.93;1.83;;;10.30;99.90;;;;;;5013643;28;20194;-73
2022/02/05 08:41:15;;;;;;;1.27;1.17;;;10.80;99.90;;;;;;5013144;28;20438;-73
2022/02/05 08:43:40;;;;;;;16.73;0.87;;;11.30;99.90;;;;;;5013653;28;20438;-73
2022/02/05 08:46:06;;;;;;;0.70;0.50;;;11.70;99.90;;;;;;5013841;28;20184;-74
2022/02/05 08:48:31;;;;;;;0.70;0.50;;;12.10;99.90;;;;;;5013083;28;20208;-74
2022/02/05 08:50:57;;;;;;;0.70;0.60;;;12.50;99.90;;;;;;5013164;28;20180;-74
2022/02/05 08:53:23;;;;;;;1.93;1.73;;;12.90;99.90;;;;;;5013025;28;20176;-73
2022/02/05 08:55:50;;;;;;;0.70;0.60;;;13.20;99.90;;;;;;5013847;28;20428;-74
2022/02/05 08:58:16;;;;;;;0.70;0.50;;;13.60;99.90;;;;;;5014806;28;20172;-74
2022/02/05 09:00:52;;;;;;;0.80;0.70;;;13.80;99.90;;;;;;4996875;28;20861;-74
2022/02/05 09:03:33;;;;;;;0.70;0.60;;;14.10;99.90;;;;;;5013883;28;20191;-74
2022/02/05 09:06:01;;;;;;;0.70;0.60;;;14.30;99.90;;;;;;5014361;28;20423;-74
2022/02/05 09:08:34;;;;;;;2.60;0.70;;;14.50;98.20;;;;;;4995427;28;20431;-74
2022/02/05 09:16:35;;;;;;;1.00;0.60;;;14.80;94.00;;;;;;5013119;28;20430;-73
2022/02/05 09:19:01;;;;;;;0.70;0.60;;;14.90;95.00;;;;;;5012381;28;20530;-73
2022/02/05 09:21:27;;;;;;;0.70;0.50;;;15.20;94.70;;;;;;5012277;28;20183;-75
2022/02/05 09:23:55;;;;;;;0.70;0.60;;;15.40;92.30;;;;;;4995193;28;20176;-74
2022/02/05 09:26:21;;;;;;;0.80;0.60;;;15.50;92.00;;;;;;5013226;28;20226;-73
2022/02/05 09:28:48;;;;;;;0.90;0.87;;;15.70;91.70;;;;;;5013839;28;20451;-73
2022/02/05 09:31:30;;;;;;;0.80;0.70;;;15.90;91.80;;;;;;5012343;28;20176;-74
2022/02/05 09:33:55;;;;;;;0.70;0.60;;;16.30;89.20;;;;;;5012977;28;20458;-74
2022/02/05 09:36:23;;;;;;;1.00;0.80;;;16.60;87.30;;;;;;5012769;28;20830;-73
2022/02/05 09:38:49;;;;;;;0.70;0.60;;;16.90;86.00;;;;;;5012637;28;20242;-73
2022/02/05 09:41:14;;;;;;;1.47;1.10;;;17.00;82.30;;;;;;5012178;28;20435;-73
2022/02/05 09:43:40;;;;;;;1.10;0.80;;;17.10;79.10;;;;;;5012466;28;20557;-73
2022/02/05 09:46:05;;;;;;;1.37;1.27;;;17.30;78.50;;;;;;5012371;28;20180;-73
2022/02/05 09:48:32;;;;;;;0.80;0.70;;;17.40;77.80;;;;;;5013045;28;20199;-75
2022/02/05 09:51:04;;;;;;;0.73;0.57;;;17.50;75.70;;;;;;5014097;28;20180;-73
2022/02/05 09:53:31;;;;;;;0.70;0.57;;;17.70;76.60;;;;;;5013615;28;20440;-73
2022/02/05 09:55:56;;;;;;;6.53;1.27;;;18.10;76.20;;;;;;4995016;28;20516;-74
2022/02/05 09:58:22;;;;;;;0.90;0.80;;;18.40;73.60;;;;;;5011739;28;20423;-74
2022/02/05 10:01:01;;;;;;;1.10;0.93;;;18.60;71.30;;;;;;5012367;28;20176;-74
2022/02/05 10:03:29;;;;;;;0.90;0.60;;;19.00;71.70;;;;;;5011544;28;20194;-75
2022/02/05 10:06:18;;;;;;;1.13;1.00;;;19.30;69.00;;;;;;4996922;28;20513;-74
2022/02/05 10:08:58;;;;;;;1.07;0.97;;;19.70;68.30;;;;;;4995432;28;20504;-74
2022/02/05 10:11:24;;;;;;;1.33;1.23;;;20.00;64.80;;;;;;4995655;28;20821;-74
2022/02/05 10:13:50;;;;;;;1.00;0.77;;;20.10;63.40;;;;;;5013319;28;20419;-75
2022/02/05 10:16:27;;;;;;;0.80;0.73;;;20.30;63.60;;;;;;5012461;28;20168;-75
2022/02/05 10:18:57;;;;;;;1.37;1.27;;;20.60;63.00;;;;;;5011457;28;20446;-75
2022/02/05 10:21:28;;;;;;;2.90;1.03;;;20.90;61.70;;;;;;5012013;28;20524;-75
2022/02/05 10:24:04;;;;;;;1.67;0.70;;;21.20;58.90;;;;;;5012146;28;20873;-75
2022/02/05 10:26:32;;;;;;;1.10;0.80;;;21.30;58.00;;;;;;5011137;28;20425;-73
2022/02/05 10:29:04;;;;;;;1.97;1.60;;;21.10;56.90;;;;;;5011441;28;20453;-73
2022/02/05 10:31:51;;;;;;;1.23;1.00;;;20.60;57.40;;;;;;4993677;28;20459;-73
2022/02/05 10:34:17;;;;;;;0.70;0.57;;;20.10;57.40;;;;;;5012868;28;20514;-74
2022/02/05 10:36:44;;;;;;;5.20;1.67;;;19.40;57.90;;;;;;5013578;28;20455;-74
2022/02/05 10:44:35;;;;;;;0.70;0.60;;;18.60;60.20;;;;;;5013009;28;20967;-74
2022/02/05 10:47:01;;;;;;;0.90;0.63;;;18.40;60.90;;;;;;5012415;28;20435;-74
2022/02/05 10:49:42;;;;;;;2.40;0.80;;;18.50;60.60;;;;;;5011495;28;20489;-74
2022/02/05 10:52:08;;;;;;;0.87;0.80;;;18.40;61.90;;;;;;5011232;28;20556;-75
2022/02/05 10:54:52;;;;;;;1.10;1.00;;;18.30;60.80;;;;;;5011278;28;20501;-74
2022/02/05 10:57:33;;;;;;;4.20;0.70;;;18.40;65.20;;;;;;5012943;28;20267;-74
2022/02/05 11:08:01;;;;;;;0.90;0.70;;;21.80;61.10;;;;;;5011768;28;20462;-74
2022/02/05 11:10:56;;;;;;;0.80;0.60;;;22.80;56.40;;;;;;5011275;28;20447;-74
2022/02/05 11:13:29;;;;;;;1.93;1.77;;;23.40;55.80;;;;;;5010886;28;20289;-75
2022/02/05 11:20:57;;;;;;;2.13;1.87;;;23.60;50.70;;;;;;5012336;28;21111;-75
2022/02/05 11:23:25;;;;;;;1.80;1.70;;;23.40;50.70;;;;;;5011990;28;20782;-74
2022/02/05 11:25:51;;;;;;;0.90;0.70;;;23.30;50.80;;;;;;5012063;28;20431;-74
2022/02/05 11:28:44;;;;;;;2.00;0.90;;;23.30;50.60;;;;;;5011741;28;20438;-75
2022/02/05 11:31:35;;;;;;;1.07;0.97;;;23.20;50.80;;;;;;5011756;28;20427;-75
2022/02/05 11:34:13;;;;;;;1.53;1.43;;;23.40;51.00;;;;;;5011324;28;20696;-75
2022/02/05 11:36:44;;;;;;;1.60;1.50;;;23.70;51.00;;;;;;5009446;28;20489;-75
2022/02/05 11:39:16;;;;;;;1.57;0.80;;;24.10;50.20;;;;;;4993886;28;20439;-75
2022/02/05 11:41:44;;;;;;;1.60;1.50;;;24.40;50.10;;;;;;4996300;28;20486;-74
2022/02/05 11:44:22;;;;;;;0.97;0.87;;;23.80;48.10;;;;;;5014690;28;20414;-74
2022/02/05 11:47:17;;;;;;;0.90;0.90;;;23.20;48.40;;;;;;5014783;28;20964;-74
2022/02/05 11:49:51;;;;;;;1.47;0.83;;;22.90;49.00;;;;;;5013261;28;20443;-74
2022/02/05 11:52:35;;;;;;;4.73;1.47;;;22.80;48.80;;;;;;4996902;28;20464;-74
2022/02/05 11:55:29;;;;;;;1.93;1.83;;;22.70;50.40;;;;;;5014284;28;20427;-74
2022/02/05 11:57:56;;;;;;;1.63;1.00;;;22.40;49.40;;;;;;5011325;28;20774;-74
2022/02/05 12:00:35;;;;;;;0.90;0.77;;;21.60;49.10;;;;;;5014399;28;20435;-74
2022/02/05 12:03:24;;;;;;;0.80;0.70;;;20.50;49.30;;;;;;5013093;28;20434;-74
2022/02/05 12:05:53;;;;;;;12.23;2.57;;;19.30;50.80;;;;;;5022318;28;20423;-75
2022/02/05 12:08:26;;;;;;;0.83;0.60;;;18.50;52.00;;;;;;5012697;28;20514;-75
2022/02/05 12:10:56;;;;;;;1.10;0.83;;;17.70;53.30;;;;;;5024384;28;20496;-74
2022/02/05 12:13:29;;;;;;;1.33;0.70;;;17.00;54.80;;;;;;5016294;28;20997;-75
2022/02/05 12:15:55;;;;;;;4.60;1.03;;;17.10;55.80;;;;;;5014294;28;20426;-75
2022/02/05 12:18:25;;;;;;;1.43;0.87;;;17.50;56.10;;;;;;4996419;28;20430;-75
2022/02/05 12:21:01;;;;;;;0.77;0.63;;;17.70;55.60;;;;;;4986335;28;20683;-75
2022/02/05 12:26:19;;;;;;;0.80;0.70;;;17.40;55.40;;;;;;5018973;28;20423;-75
2022/02/05 12:28:49;;;;;;;0.83;0.70;;;17.60;55.80;;;;;;5013708;28;20514;-75
2022/02/05 12:31:18;;;;;;;1.20;1.00;;;17.80;55.50;;;;;;4996456;28;20510;-75
2022/02/05 12:33:46;;;;;;;0.80;0.70;;;18.20;55.40;;;;;;5013975;28;20403;-75
2022/02/05 12:36:13;;;;;;;0.80;0.70;;;18.40;55.20;;;;;;5014121;28;20411;-75
2022/02/05 12:38:40;;;;;;;0.80;0.60;;;18.30;54.70;;;;;;4997274;28;20440;-75
2022/02/05 12:41:07;;;;;;;1.17;0.90;;;17.90;54.60;;;;;;4994482;28;20409;-74
2022/02/05 12:43:54;;;;;;;1.10;1.00;;;17.40;54.40;;;;;;4992706;28;20471;-74
2022/02/05 12:46:23;;;;;;;2.13;1.10;;;16.80;55.50;;;;;;5007127;28;20457;-74
2022/02/05 12:48:55;;;;;;;1.53;1.43;;;16.30;56.10;;;;;;5015658;28;20455;-74
2022/02/05 12:51:21;;;;;;;1.03;0.93;;;16.00;56.90;;;;;;5012333;28;20464;-74
2022/02/05 12:53:47;;;;;;;0.80;0.70;;;15.90;57.30;;;;;;5014817;28;20959;-75
2022/02/05 12:56:17;;;;;;;1.53;0.63;;;15.60;57.20;;;;;;5028180;28;20716;-75
2022/02/05 12:59:01;;;;;;;0.70;0.50;;;15.30;57.80;;;;;;5020077;28;20450;-75
2022/02/05 13:01:28;;;;;;;1.87;1.03;;;15.80;58.10;;;;;;5024592;28;20438;-75
2022/02/05 13:04:09;;;;;;;0.80;0.60;;;16.40;57.80;;;;;;5026898;28;20457;-75
2022/02/05 13:06:35;;;;;;;0.80;0.60;;;17.00;57.10;;;;;;5032580;28;20505;-74
2022/02/05 13:09:00;;;;;;;0.80;0.60;;;17.90;56.60;;;;;;5011928;28;20482;-74
2022/02/05 13:11:27;;;;;;;1.00;0.70;;;18.80;55.70;;;;;;5006262;28;20287;-74
2022/02/05 13:13:54;;;;;;;0.80;0.80;;;19.20;54.30;;;;;;4993619;28;20196;-74
2022/02/05 13:16:21;;;;;;;1.33;1.23;;;19.10;52.60;;;;;;5002924;28;20435;-74
2022/02/05 13:19:04;;;;;;;0.80;0.60;;;19.00;52.90;;;;;;5023595;28;20516;-74
2022/02/05 13:27:15;;;;;;;0.90;0.77;;;18.80;52.20;;;;;;5032951;28;20415;-75
2022/02/05 13:29:57;;;;;;;0.80;0.70;;;19.30;51.90;;;;;;5024978;28;20460;-75
2022/02/05 13:35:09;;;;;;;0.93;0.70;;;20.60;51.40;;;;;;5017691;28;20442;-75
2022/02/05 13:37:48;;;;;;;0.80;0.60;;;21.60;49.50;;;;;;5003710;28;20434;-75
2022/02/05 13:40:18;;;;;;;0.90;0.77;;;22.00;48.50;;;;;;5017638;28;20455;-75
2022/02/05 13:42:48;;;;;;;1.00;0.70;;;22.40;47.50;;;;;;5006442;28;20434;-75
2022/02/05 13:45:25;;;;;;;0.80;0.60;;;22.40;47.40;;;;;;5025510;28;20459;-75
2022/02/05 13:47:53;;;;;;;1.00;0.60;;;22.20;46.60;;;;;;5019424;28;20512;-75
2022/02/05 13:50:24;;;;;;;0.93;0.60;;;21.60;46.70;;;;;;5001042;28;20469;-74
2022/02/05 13:52:54;;;;;;;1.03;0.63;;;20.60;46.90;;;;;;5000272;28;20469;-74
2022/02/05 13:55:26;;;;;;;1.40;0.63;;;19.70;47.90;;;;;;5016619;28;20478;-74
2022/02/05 13:57:58;;;;;;;0.70;0.50;;;18.80;48.40;;;;;;5032233;28;20975;-74
2022/02/05 14:00:41;;;;;;;0.80;0.60;;;17.90;49.00;;;;;;5021181;28;20471;-74
2022/02/05 14:03:08;;;;;;;0.80;0.70;;;17.00;50.30;;;;;;5019449;28;20508;-73
2022/02/05 14:05:53;;;;;;;0.80;0.60;;;16.20;52.00;;;;;;5011491;28;20942;-75
2022/02/05 14:08:49;;;;;;;0.70;0.50;;;15.70;53.10;;;;;;5011412;28;21038;-74
2022/02/05 14:11:33;;;;;;;0.90;0.77;;;15.10;54.30;;;;;;5012288;28;20935;-74
2022/02/05 14:14:02;;;;;;;3.80;2.00;;;14.70;55.10;;;;;;5012228;28;20487;-74
2022/02/05 14:16:32;;;;;;;0.70;0.60;;;14.30;56.10;;;;;;5005545;28;20439;-74
2022/02/05 14:19:00;;;;;;;0.83;0.70;;;13.90;57.00;;;;;;5007917;28;20513;-74
2022/02/05 14:21:33;;;;;;;0.77;0.63;;;13.80;57.80;;;;;;5022827;28;20863;-74
2022/02/05 14:23:59;;;;;;;0.80;0.50;;;13.60;58.30;;;;;;5006766;28;20843;-75
2022/02/05 14:26:33;;;;;;;0.70;0.50;;;13.30;59.20;;;;;;5020558;28;20442;-75
2022/02/05 14:29:02;;;;;;;0.77;0.63;;;13.20;59.80;;;;;;5024534;28;20442;-75
2022/02/05 14:31:33;;;;;;;1.17;0.77;;;13.30;59.80;;;;;;5015266;28;20516;-74
2022/02/05 14:41:45;;;;;;;0.80;0.60;;;17.80;56.00;;;;;;5024778;28;20491;-74
2022/02/05 14:44:12;;;;;;;1.77;1.67;;;18.80;53.70;;;;;;5018691;28;20434;-73
2022/02/05 14:46:37;;;;;;;2.30;0.87;;;19.50;53.00;;;;;;5019529;28;20190;-74
2022/02/05 14:49:03;;;;;;;1.77;0.60;;;20.20;52.30;;;;;;5031652;28;20915;-74
2022/02/05 14:51:28;;;;;;;0.70;0.50;;;20.80;50.00;;;;;;5007217;28;20672;-74
2022/02/05 14:53:58;;;;;;;1.27;0.60;;;21.20;49.60;;;;;;5031100;28;20182;-74
2022/02/05 14:56:24;;;;;;;1.00;0.80;;;21.50;49.20;;;;;;5011159;28;20208;-74
2022/02/05 14:58:50;;;;;;;1.30;0.90;;;21.80;48.40;;;;;;5015874;28;20540;-74
2022/02/05 15:01:20;;;;;;;0.80;0.63;;;21.80;48.40;;;;;;5019718;28;20797;-74
2022/02/05 15:03:50;;;;;;;1.73;0.80;;;21.80;47.90;;;;;;5028878;28;20442;-74
2022/02/05 15:06:21;;;;;;;0.80;0.60;;;21.80;47.30;;;;;;4997343;28;20438;-74
2022/02/05 15:08:49;;;;;;;0.83;0.73;;;21.50;47.00;;;;;;5018345;28;20445;-74
2022/02/05 15:11:16;;;;;;;1.17;1.07;;;21.30;47.70;;;;;;5007468;28;20445;-74
2022/02/05 15:13:42;;;;;;;0.80;0.80;;;21.00;47.60;;;;;;5004528;28;20529;-74
2022/02/05 15:16:12;;;;;;;2.03;1.40;;;20.90;47.60;;;;;;5016503;28;20453;-74
2022/02/05 15:18:46;;;;;;;1.50;1.40;;;20.70;47.90;;;;;;5020976;28;20541;-74
2022/02/05 15:21:12;;;;;;;0.80;0.60;;;20.10;47.30;;;;;;5021030;28;20434;-73
2022/02/05 15:23:37;;;;;;;0.80;0.73;;;19.90;48.30;;;;;;5027655;28;20480;-74
2022/02/05 15:26:04;;;;;;;0.80;0.60;;;19.80;48.60;;;;;;5017974;28;20176;-73
2022/02/05 15:28:30;;;;;;;0.80;0.77;;;19.80;48.20;;;;;;5020816;28;20204;-73
2022/02/05 15:30:57;;;;;;;3.03;1.77;;;19.80;47.90;;;;;;5019184;28;20962;-74
2022/02/05 15:33:23;;;;;;;0.80;0.67;;;19.70;48.40;;;;;;5005929;28;20477;-73
2022/02/05 15:35:51;;;;;;;0.70;0.50;;;19.60;48.40;;;;;;5020568;28;20442;-73
2022/02/05 15:38:24;;;;;;;0.70;0.50;;;19.10;48.10;;;;;;5014244;28;20427;-73
2022/02/05 15:46:06;;;;;;;0.70;0.60;;;15.90;50.10;;;;;;5017570;28;20833;-74
2022/02/05 15:48:32;;;;;;;0.70;0.50;;;15.00;51.20;;;;;;5013699;28;20455;-73
2022/02/05 15:50:58;;;;;;;0.73;0.57;;;14.30;52.40;;;;;;5024269;28;20511;-73
2022/02/05 15:53:24;;;;;;;0.80;0.60;;;13.60;53.50;;;;;;4993490;28;20216;-74
2022/02/05 15:55:49;;;;;;;1.03;1.03;;;13.00;54.90;;;;;;5004824;28;20523;-74
2022/02/05 15:58:21;;;;;;;0.70;0.50;;;12.50;56.10;;;;;;5008545;28;20191;-73